Main page
METAR-TAF:

METAR-TAF

Airports :

Tripoli, Libya

Mitiga International Airport

latitude: 32-54N, longitude: 13-17E, elevation: 11 m

Current weather observation

The report was made 1 hour and 1 minutes ago, at 10:50 UTC
Wind 7 kt from the North/Northwest
Temperature 31°C
Humidity 55%
Pressure 1016 hPa
Visibility: 8000 m
Clear sky

METAR: HLLM 211050Z 34007KT 8000 SKC 31/21 Q1016

Time: 13:51 (11:51 UTC)

Forecast

The report was made 51 minutes ago, at 11:00 UTC
Forecast valid from 20 at 12 UTC to 21 at 12 UTC
Wind 10 kt from the East/Northeast
Visibility 10 km or more
no clouds below 1500 m and no cumulonimbus
Becoming
from 20 at 22 UTC to 20 at 24 UTC
Wind 2 kt from variable directions
Probability 30%
from 21 at 03 UTC to 21 at 06 UTC
Visibility: 5000 m
mist
Becoming
from 21 at 10 UTC to 21 at 12 UTC
Wind 10 kt from the North/Northwest

TAF: HLLM 201100Z 2012/2112 06010KT CAVOK BECMG 2022/2024 VRB02KT PROB30 2103/2106 5000 BR NSC BECMG 2110/2112 33010KT

Weather observations and forecasts of more than 4000 airports (METAR and TAF reports).

The available stations are represented by yellow and red dots on the map.

Hover mouse over dot to see the name of the station.

Then click to see weather observations and forecasts.

To change the map : click on the green buttons with a black cross to zoom in, on the green button with a dash to zoom out, or on the green arrows for adjacent maps.


METAR-TAF: